createdAt,value
2019-03-13T00:00:42.503Z,2.00
2019-03-13T00:03:11.063Z,1.77
2019-03-13T00:05:39.507Z,1.90
2019-03-13T00:08:07.968Z,2.20
2019-03-13T00:10:36.787Z,1.80
2019-03-13T00:13:05.235Z,1.55
2019-03-13T00:15:33.806Z,1.90
2019-03-13T00:18:02.266Z,1.95
2019-03-13T00:20:30.722Z,2.10
2019-03-13T00:22:59.647Z,1.90
2019-03-13T00:25:28.091Z,1.82
2019-03-13T00:27:56.558Z,1.42
2019-03-13T00:30:25.139Z,1.62
2019-03-13T00:32:53.587Z,1.42
2019-03-13T00:35:22.124Z,1.57
2019-03-13T00:37:50.714Z,1.60
2019-03-13T00:40:19.283Z,1.55
2019-03-13T00:42:47.771Z,1.35
2019-03-13T00:45:16.613Z,1.52
2019-03-13T00:47:45.063Z,1.30
2019-03-13T00:50:22.577Z,1.52
2019-03-13T00:52:51.027Z,1.42
2019-03-13T00:55:19.484Z,1.45
2019-03-13T00:57:48.265Z,2.15
2019-03-13T01:00:18.432Z,1.90
2019-03-13T01:02:48.533Z,1.90
2019-03-13T01:05:21.374Z,1.57
2019-03-13T01:07:49.892Z,1.67
2019-03-13T01:10:18.340Z,1.85
2019-03-13T01:12:46.903Z,1.40
2019-03-13T01:15:15.638Z,1.62
2019-03-13T01:17:44.173Z,1.50
2019-03-13T01:20:13.620Z,1.60
2019-03-13T01:22:42.115Z,1.50
2019-03-13T01:25:10.790Z,1.87
2019-03-13T01:27:39.243Z,1.40
2019-03-13T01:30:11.333Z,1.42
2019-03-13T01:32:41.674Z,1.40
2019-03-13T01:35:14.709Z,2.20
2019-03-13T01:37:43.231Z,1.65
2019-03-13T01:40:12.028Z,1.57
2019-03-13T01:42:40.767Z,1.75
2019-03-13T01:45:10.554Z,1.60
2019-03-13T01:47:39.167Z,1.77
2019-03-13T01:50:10.319Z,1.35
2019-03-13T01:52:38.775Z,1.50
2019-03-13T01:55:09.239Z,1.72
2019-03-13T02:00:08.554Z,1.55
2019-03-13T02:02:37.089Z,2.25
2019-03-13T02:05:06.410Z,1.40
2019-03-13T02:07:34.873Z,1.85
2019-03-13T02:10:05.049Z,1.72
2019-03-13T02:12:33.657Z,1.57
2019-03-13T02:15:02.104Z,1.80
2019-03-13T02:17:30.705Z,1.98
2019-03-13T02:19:59.286Z,2.15
2019-03-13T02:22:27.817Z,2.00
2019-03-13T02:24:56.335Z,2.22
2019-03-13T02:27:24.848Z,2.02
2019-03-13T02:29:53.299Z,2.52
2019-03-13T02:32:21.743Z,2.25
2019-03-13T02:34:50.238Z,1.98
2019-03-13T02:37:18.683Z,1.82
2019-03-13T02:39:47.127Z,2.00
2019-03-13T02:42:15.617Z,2.20
2019-03-13T02:44:44.067Z,2.00
2019-03-13T02:47:12.537Z,2.20
2019-03-13T02:49:41.087Z,2.60
2019-03-13T02:52:09.531Z,2.40
2019-03-13T02:54:37.978Z,2.70
2019-03-13T02:57:06.467Z,2.77
2019-03-13T02:59:34.914Z,2.47
2019-03-13T03:02:05.033Z,2.57
2019-03-13T03:04:33.486Z,2.52
2019-03-13T03:07:01.946Z,2.97
2019-03-13T03:09:30.511Z,2.67
2019-03-13T03:11:59.038Z,2.53
2019-03-13T03:14:27.562Z,2.47
2019-03-13T03:16:56.057Z,2.83
2019-03-13T03:19:26.313Z,2.60
2019-03-13T03:21:54.818Z,2.85
2019-03-13T03:24:23.419Z,2.50
2019-03-13T03:26:51.946Z,2.67
2019-03-13T03:29:20.464Z,2.23
2019-03-13T03:31:48.948Z,2.93
2019-03-13T03:34:17.468Z,2.60
2019-03-13T03:36:45.971Z,2.43
2019-03-13T03:39:14.415Z,2.80
2019-03-13T03:41:42.932Z,3.10
2019-03-13T03:44:11.433Z,2.90
2019-03-13T03:46:39.883Z,2.73
2019-03-13T03:49:08.331Z,2.93
2019-03-13T03:51:36.855Z,3.00
2019-03-13T03:54:05.379Z,3.00
2019-03-13T03:56:33.842Z,3.10
2019-03-13T03:59:02.490Z,3.17
2019-03-13T04:01:30.954Z,3.10
2019-03-13T04:03:59.546Z,2.87
2019-03-13T04:06:28.102Z,3.20
2019-03-13T04:08:56.659Z,3.10
2019-03-13T04:11:25.137Z,3.13
2019-03-13T04:13:53.676Z,2.80
2019-03-13T04:16:22.121Z,2.50
2019-03-13T04:18:50.704Z,2.47
2019-03-13T04:21:19.253Z,2.40
2019-03-13T04:23:47.755Z,2.57
2019-03-13T04:26:16.391Z,1.83
2019-03-13T04:28:44.839Z,1.50
2019-03-13T04:31:13.282Z,1.30
2019-03-13T04:33:41.799Z,1.17
2019-03-13T04:36:10.239Z,1.10
2019-03-13T04:38:38.694Z,0.90
2019-03-13T04:41:07.201Z,1.40
2019-03-13T04:43:35.665Z,1.30
2019-03-13T04:46:04.122Z,1.17
2019-03-13T04:48:32.679Z,1.30
2019-03-13T04:51:01.243Z,1.27
2019-03-13T04:53:29.687Z,1.47
2019-03-13T04:55:58.141Z,1.60
2019-03-13T04:58:26.625Z,1.57
2019-03-13T05:00:55.118Z,1.73
2019-03-13T05:03:23.578Z,2.10
2019-03-13T05:05:52.567Z,1.80
2019-03-13T05:08:44.609Z,1.83
2019-03-13T05:11:03.272Z,1.40
2019-03-13T05:13:31.795Z,1.70
2019-03-13T05:16:00.348Z,2.00
2019-03-13T05:18:28.834Z,1.63
2019-03-13T05:20:57.278Z,1.20
2019-03-13T05:23:25.755Z,1.70
2019-03-13T05:25:54.199Z,1.53
2019-03-13T05:28:22.652Z,1.70
2019-03-13T05:30:53.058Z,1.80
2019-03-13T05:33:21.408Z,2.25
2019-03-13T05:35:49.927Z,1.67
2019-03-13T05:38:18.499Z,1.50
2019-03-13T05:40:46.979Z,1.37
2019-03-13T05:43:15.459Z,1.77
2019-03-13T05:45:43.962Z,1.90
2019-03-13T05:48:12.406Z,1.90
2019-03-13T05:50:40.909Z,1.67
2019-03-13T05:53:09.446Z,1.73
2019-03-13T05:55:37.966Z,1.43
2019-03-13T05:58:06.415Z,1.73
2019-03-13T06:00:34.923Z,1.57
2019-03-13T06:03:03.446Z,1.60
2019-03-13T06:05:31.901Z,1.70
2019-03-13T06:08:00.386Z,2.23
2019-03-13T06:10:28.947Z,1.83
2019-03-13T06:12:57.407Z,1.90
2019-03-13T06:15:31.182Z,1.60
2019-03-13T06:18:03.157Z,2.13
2019-03-13T06:20:31.613Z,1.83
2019-03-13T06:23:00.379Z,1.50
2019-03-13T06:25:29.416Z,1.60
2019-03-13T06:27:57.859Z,1.50
2019-03-13T06:30:27.215Z,1.83
2019-03-13T06:32:55.673Z,1.87
2019-03-13T06:35:24.232Z,1.43
2019-03-13T06:37:53.760Z,1.60
2019-03-13T06:40:22.223Z,1.57
2019-03-13T06:42:50.744Z,1.90
2019-03-13T06:45:23.181Z,1.50
2019-03-13T06:47:50.361Z,1.70
2019-03-13T06:50:25.739Z,1.50
2019-03-13T06:52:54.185Z,1.43
2019-03-13T06:55:23.218Z,1.40
2019-03-13T06:57:52.008Z,1.43
2019-03-13T07:00:38.204Z,1.60
2019-03-13T07:03:11.494Z,2.10
2019-03-13T07:05:58.517Z,3.10
2019-03-13T07:08:37.676Z,1.60
2019-03-13T07:11:09.000Z,1.30
2019-03-13T07:13:39.739Z,1.90
2019-03-13T07:16:25.811Z,1.60
2019-03-13T07:18:58.080Z,2.07
2019-03-13T07:21:34.095Z,2.53
2019-03-13T07:24:23.806Z,2.00
2019-03-13T07:29:35.200Z,1.73
2019-03-13T07:32:14.122Z,1.70
2019-03-13T07:34:47.214Z,1.73
2019-03-13T07:37:35.670Z,1.93
2019-03-13T07:40:09.185Z,1.70
2019-03-13T07:42:39.356Z,1.70
2019-03-13T07:45:12.671Z,2.00
2019-03-13T07:47:48.788Z,1.93
2019-03-13T07:50:22.365Z,1.80
2019-03-13T07:53:10.270Z,1.50
2019-03-13T07:55:44.173Z,2.10
2019-03-13T07:58:14.272Z,1.93
2019-03-13T08:01:01.214Z,2.37
2019-03-13T08:03:34.030Z,2.00
2019-03-13T08:06:07.280Z,2.33
2019-03-13T08:08:40.057Z,2.40
2019-03-13T08:11:19.399Z,2.23
2019-03-13T08:13:49.487Z,2.20
2019-03-13T08:16:19.586Z,2.60
2019-03-13T08:18:56.519Z,2.55
2019-03-13T08:21:26.621Z,2.20
2019-03-13T08:23:59.869Z,2.30
2019-03-13T08:26:35.667Z,2.40
2019-03-13T08:29:06.423Z,2.60
2019-03-13T08:31:56.616Z,2.00
2019-03-13T08:34:35.454Z,2.60
2019-03-13T08:37:15.064Z,2.20
2019-03-13T08:42:43.145Z,2.45
2019-03-13T08:45:31.196Z,2.20
2019-03-13T08:48:02.845Z,2.10
2019-03-13T08:50:32.931Z,2.35
2019-03-13T08:53:03.014Z,2.50
2019-03-13T08:55:37.502Z,2.22
2019-03-13T08:58:25.847Z,2.20
2019-03-13T09:01:02.233Z,2.12
2019-03-13T09:03:49.073Z,2.00
2019-03-13T09:06:22.930Z,2.50
2019-03-13T09:09:05.063Z,2.22
2019-03-13T09:11:36.878Z,2.30
2019-03-13T09:14:07.045Z,2.60
2019-03-13T09:16:54.147Z,2.20
2019-03-13T09:19:30.255Z,2.12
2019-03-13T09:22:07.149Z,2.20
2019-03-13T09:24:53.733Z,2.60
2019-03-13T09:27:40.139Z,2.20
2019-03-13T09:30:14.604Z,2.02
2019-03-13T09:32:44.983Z,2.10
2019-03-13T09:35:21.500Z,2.02
2019-03-13T09:38:04.570Z,2.20
2019-03-13T09:40:34.655Z,1.98
2019-03-13T09:43:06.939Z,1.50
2019-03-13T09:45:37.104Z,2.60
2019-03-13T09:48:16.088Z,2.20
2019-03-13T09:50:48.624Z,1.70
2019-03-13T09:53:22.004Z,2.37
2019-03-13T09:56:01.436Z,1.77
2019-03-13T09:58:45.259Z,1.85
2019-03-13T10:01:24.310Z,1.62
2019-03-13T10:04:01.467Z,1.42
2019-03-13T10:06:34.279Z,1.65
2019-03-13T10:09:04.458Z,1.75
2019-03-13T10:11:46.715Z,1.47
2019-03-13T10:14:32.097Z,1.57
2019-03-13T10:19:43.261Z,1.52
2019-03-13T10:22:16.297Z,1.40
2019-03-13T10:24:53.510Z,1.77
2019-03-13T10:27:35.478Z,1.62
2019-03-13T10:30:26.104Z,1.87
2019-03-13T10:33:08.015Z,1.70
2019-03-13T10:35:48.146Z,1.50
2019-03-13T10:38:18.242Z,1.67
2019-03-13T10:40:49.205Z,1.32
2019-03-13T10:43:19.382Z,1.82
2019-03-13T10:46:06.815Z,1.55
2019-03-13T10:48:36.999Z,1.52
2019-03-13T10:51:13.838Z,1.82
2019-03-13T10:53:59.094Z,1.72
2019-03-13T10:56:35.271Z,1.60
2019-03-13T10:59:05.428Z,1.67
2019-03-13T11:01:42.078Z,1.30
2019-03-13T11:04:14.858Z,1.57
2019-03-13T11:06:55.489Z,1.60
2019-03-13T11:09:34.679Z,1.60
2019-03-13T11:12:07.871Z,1.70
2019-03-13T11:14:43.941Z,1.62
2019-03-13T11:17:30.079Z,1.67
2019-03-13T11:20:18.946Z,1.30
2019-03-13T11:22:58.675Z,1.98
2019-03-13T11:25:31.761Z,1.42
2019-03-13T11:28:11.403Z,1.20
2019-03-13T11:30:58.819Z,1.70
2019-03-13T11:33:42.042Z,1.35
2019-03-13T11:36:30.075Z,1.55
2019-03-13T11:39:03.214Z,1.35
2019-03-13T11:41:41.369Z,2.30
2019-03-13T11:44:11.466Z,1.55
2019-03-13T11:46:41.547Z,1.87
2019-03-13T11:49:18.796Z,1.40
2019-03-13T11:52:05.174Z,1.65
2019-03-13T11:54:39.593Z,1.30
2019-03-13T11:57:18.777Z,1.75
2019-03-13T11:59:49.498Z,1.62
2019-03-13T12:02:25.559Z,1.35
2019-03-13T12:04:56.183Z,1.70
2019-03-13T12:07:38.156Z,1.50
2019-03-13T12:10:18.771Z,1.77
2019-03-13T12:12:54.912Z,1.72
2019-03-13T12:15:42.309Z,1.50
2019-03-13T12:18:13.658Z,1.40
2019-03-13T12:20:47.466Z,1.70
2019-03-13T12:23:36.242Z,1.20
2019-03-13T12:26:06.526Z,1.27
2019-03-13T12:28:39.633Z,1.40
2019-03-13T12:31:29.263Z,1.40
2019-03-13T12:34:08.119Z,1.40
2019-03-13T12:36:41.895Z,1.60
2019-03-13T12:39:13.883Z,1.77
2019-03-13T12:42:01.810Z,1.90
2019-03-13T12:44:32.063Z,1.22
2019-03-13T12:47:09.831Z,2.05
2019-03-13T12:49:56.431Z,1.67
2019-03-13T12:52:26.536Z,1.40
2019-03-13T12:55:02.946Z,1.35
2019-03-13T12:57:33.237Z,1.85
2019-03-13T13:00:09.403Z,1.45
2019-03-13T13:02:54.523Z,1.20
2019-03-13T13:05:43.539Z,1.45
2019-03-13T13:08:29.945Z,1.80
2019-03-13T13:11:01.165Z,1.32
2019-03-13T13:13:40.215Z,1.40
2019-03-13T13:16:25.982Z,1.52
2019-03-13T13:18:54.530Z,1.67
2019-03-13T13:21:24.895Z,1.72
2019-03-13T13:23:53.466Z,1.47
2019-03-13T13:26:22.062Z,1.52
2019-03-13T13:28:52.182Z,1.35
2019-03-13T13:31:20.697Z,1.42
2019-03-13T13:33:49.230Z,2.22
2019-03-13T13:36:19.072Z,1.65
2019-03-13T13:38:47.884Z,2.12
2019-03-13T13:41:16.667Z,1.92
2019-03-13T13:43:45.314Z,1.20
2019-03-13T13:46:20.808Z,1.37
2019-03-13T13:48:51.028Z,1.70
2019-03-13T13:51:19.557Z,2.05
2019-03-13T13:53:48.615Z,1.10
2019-03-13T13:56:17.150Z,1.37
2019-03-13T13:58:46.502Z,1.75
2019-03-13T14:01:15.406Z,1.65
2019-03-13T14:03:43.924Z,1.77
2019-03-13T14:06:14.100Z,1.90
2019-03-13T14:08:42.555Z,1.72
2019-03-13T14:11:13.971Z,1.77
2019-03-13T14:13:42.505Z,1.52
2019-03-13T14:16:11.026Z,1.35
2019-03-13T14:18:41.639Z,2.15
2019-03-13T14:23:42.508Z,1.35
2019-03-13T14:26:11.043Z,1.55
2019-03-13T14:28:39.559Z,1.85
2019-03-13T14:31:10.516Z,1.47
2019-03-13T14:33:38.964Z,1.22
2019-03-13T14:36:07.613Z,1.40
2019-03-13T14:38:36.205Z,1.55
2019-03-13T14:41:05.104Z,1.45
2019-03-13T14:43:33.963Z,1.60
2019-03-13T14:46:03.074Z,1.65
2019-03-13T14:48:32.675Z,1.70
2019-03-13T14:51:01.123Z,2.10
2019-03-13T14:53:29.572Z,1.90
2019-03-13T14:55:58.677Z,2.05
2019-03-13T14:58:27.189Z,1.50
2019-03-13T15:00:55.651Z,1.50
2019-03-13T15:03:24.322Z,1.27
2019-03-13T15:05:52.840Z,1.12
2019-03-13T15:08:22.116Z,1.65
2019-03-13T15:10:51.316Z,1.50
2019-03-13T15:13:19.832Z,1.20
2019-03-13T15:15:51.456Z,1.27
2019-03-13T15:18:21.509Z,1.10
2019-03-13T15:20:50.785Z,1.30
2019-03-13T15:23:19.656Z,1.40
2019-03-13T15:25:48.768Z,1.57
2019-03-13T15:28:19.496Z,1.30
2019-03-13T15:30:48.392Z,1.30
2019-03-13T15:33:16.844Z,1.40
2019-03-13T15:35:45.883Z,1.62
2019-03-13T15:38:14.392Z,1.22
2019-03-13T15:40:42.839Z,1.22
2019-03-13T15:43:12.759Z,1.27
2019-03-13T15:45:41.227Z,1.17
2019-03-13T15:48:09.943Z,1.40
2019-03-13T15:50:39.077Z,1.45
2019-03-13T15:53:08.032Z,1.42
2019-03-13T15:55:37.137Z,1.60
2019-03-13T15:58:06.739Z,1.70
2019-03-13T16:00:37.171Z,1.53
2019-03-13T16:05:34.166Z,1.07
2019-03-13T16:08:02.732Z,1.22
2019-03-13T16:10:31.212Z,1.52
2019-03-13T16:13:04.715Z,1.25
2019-03-13T16:15:35.074Z,1.60
2019-03-13T16:18:03.556Z,1.30
2019-03-13T16:20:37.555Z,1.20
2019-03-13T16:23:04.098Z,1.05
2019-03-13T16:25:32.691Z,1.85
2019-03-13T16:28:01.221Z,1.20
2019-03-13T16:30:51.671Z,1.50
2019-03-13T16:33:21.375Z,1.40
2019-03-13T16:35:49.917Z,1.32
2019-03-13T16:38:19.470Z,1.12
2019-03-13T16:40:48.010Z,1.20
2019-03-13T16:43:16.523Z,1.20
2019-03-13T16:45:47.362Z,1.95
2019-03-13T16:48:15.906Z,1.60
2019-03-13T16:50:44.423Z,1.85
2019-03-13T16:53:16.728Z,1.75
2019-03-13T16:55:45.194Z,1.45
2019-03-13T16:58:14.808Z,1.40
2019-03-13T17:00:43.349Z,1.40
2019-03-13T17:03:13.027Z,1.40
2019-03-13T17:05:42.915Z,1.42
2019-03-13T17:08:11.772Z,1.05
2019-03-13T17:10:41.347Z,1.27
2019-03-13T17:13:11.341Z,1.70
2019-03-13T17:15:41.522Z,1.00
2019-03-13T17:18:10.472Z,1.45
2019-03-13T17:20:42.717Z,1.25
2019-03-13T17:23:13.483Z,1.30
2019-03-13T17:25:43.117Z,1.47
2019-03-13T17:28:11.625Z,1.30
2019-03-13T17:30:42.119Z,1.40
2019-03-13T17:35:39.657Z,1.50
2019-03-13T17:38:10.426Z,1.65
2019-03-13T17:40:39.194Z,1.60
2019-03-13T17:43:08.940Z,1.30
2019-03-13T17:45:37.470Z,1.27
2019-03-13T17:48:07.055Z,1.80
2019-03-13T17:50:37.771Z,1.83
2019-03-13T17:53:06.302Z,3.00
2019-03-13T17:55:34.828Z,1.62
2019-03-13T17:58:06.195Z,2.40
2019-03-13T18:00:47.243Z,2.55
2019-03-13T18:03:16.780Z,1.47
2019-03-13T18:05:45.435Z,1.47
2019-03-13T18:08:16.022Z,4.70
2019-03-13T18:10:44.619Z,1.45
2019-03-13T18:13:13.072Z,2.08
2019-03-13T18:15:43.656Z,1.57
2019-03-13T18:20:41.798Z,2.47
2019-03-13T18:23:10.256Z,1.60
2019-03-13T18:25:41.175Z,6.22
2019-03-13T18:28:09.632Z,1.42
2019-03-13T18:30:38.093Z,1.37
2019-03-13T18:33:06.975Z,1.67
2019-03-13T18:35:35.444Z,1.67
2019-03-13T18:38:04.202Z,1.40
2019-03-13T18:40:33.992Z,1.60
2019-03-13T18:43:02.507Z,1.20
2019-03-13T18:45:35.265Z,1.32
2019-03-13T18:48:04.090Z,1.22
2019-03-13T18:50:32.694Z,1.55
2019-03-13T18:53:01.147Z,1.50
2019-03-13T18:55:38.407Z,1.35
2019-03-13T18:58:06.999Z,1.40
2019-03-13T19:00:39.437Z,1.22
2019-03-13T19:03:08.907Z,1.90
2019-03-13T19:05:39.734Z,1.40
2019-03-13T19:08:08.451Z,1.52
2019-03-13T19:10:39.638Z,1.55
2019-03-13T19:13:09.459Z,1.55
2019-03-13T19:15:40.137Z,1.40
2019-03-13T19:18:10.639Z,1.05
2019-03-13T19:20:39.177Z,1.50
2019-03-13T19:23:08.517Z,1.80
2019-03-13T19:25:38.430Z,1.40
2019-03-13T19:28:08.035Z,1.50
2019-03-13T19:30:38.987Z,1.50
2019-03-13T19:33:07.594Z,1.55
2019-03-13T19:35:38.408Z,1.90
2019-03-13T19:38:16.152Z,1.80
2019-03-13T19:40:45.835Z,1.80
2019-03-13T19:43:14.375Z,1.75
2019-03-13T19:45:45.954Z,1.98
2019-03-13T19:48:14.402Z,1.80
2019-03-13T19:50:42.847Z,2.00
2019-03-13T19:53:14.516Z,1.60
2019-03-13T19:55:43.592Z,1.95
2019-03-13T19:58:12.135Z,1.52
2019-03-13T20:00:41.066Z,1.90
2019-03-13T20:03:17.284Z,1.95
2019-03-13T20:05:46.672Z,1.72
2019-03-13T20:08:17.633Z,1.98
2019-03-13T20:10:46.127Z,2.02
2019-03-13T20:13:14.590Z,2.22
2019-03-13T20:15:43.762Z,2.50
2019-03-13T20:18:12.354Z,2.20
2019-03-13T20:20:42.284Z,2.12
2019-03-13T20:23:19.341Z,2.20
2019-03-13T20:25:48.350Z,2.10
2019-03-13T20:28:16.809Z,2.40
2019-03-13T20:30:51.134Z,2.70
2019-03-13T20:33:19.602Z,2.67
2019-03-13T20:35:48.108Z,2.00
2019-03-13T20:38:18.736Z,1.80
2019-03-13T20:40:47.252Z,1.62
2019-03-13T20:43:15.721Z,2.05
2019-03-13T20:45:45.419Z,1.70
2019-03-13T20:48:13.954Z,1.57
2019-03-13T20:50:42.471Z,1.52
2019-03-13T20:53:13.140Z,2.10
2019-03-13T20:55:43.581Z,1.50
2019-03-13T21:00:39.789Z,1.62
2019-03-13T21:03:09.230Z,1.65
2019-03-13T21:05:39.037Z,1.50
2019-03-13T21:08:07.564Z,2.50
2019-03-13T21:10:38.080Z,1.52
2019-03-13T21:13:06.609Z,1.62
2019-03-13T21:15:37.496Z,1.60
2019-03-13T21:18:06.028Z,1.50
2019-03-13T21:20:35.820Z,1.70
2019-03-13T21:23:05.314Z,1.57
2019-03-13T21:25:36.348Z,1.90
2019-03-13T21:28:07.886Z,1.90
2019-03-13T21:30:36.350Z,1.77
2019-03-13T21:33:09.578Z,2.10
2019-03-13T21:35:38.127Z,1.90
2019-03-13T21:38:07.259Z,2.10
2019-03-13T21:40:38.499Z,1.72
2019-03-13T21:43:06.960Z,2.17
2019-03-13T21:45:41.505Z,2.20
2019-03-13T21:48:08.436Z,2.27
2019-03-13T21:50:38.389Z,2.67
2019-03-13T21:53:08.714Z,3.00
2019-03-13T21:55:37.252Z,2.92
2019-03-13T21:58:08.027Z,2.42
2019-03-13T22:00:36.483Z,2.98
2019-03-13T22:03:04.926Z,3.13
2019-03-13T22:05:39.734Z,3.55
2019-03-13T22:08:08.243Z,2.97
2019-03-13T22:10:39.057Z,3.27
2019-03-13T22:13:09.583Z,2.93
2019-03-13T22:18:07.177Z,3.23
2019-03-13T22:24:20.579Z,4.20
2019-03-13T22:26:50.816Z,3.07
2019-03-13T22:29:28.095Z,3.83
2019-03-13T22:31:56.548Z,3.67
2019-03-13T22:34:25.689Z,3.60
2019-03-13T22:36:54.222Z,3.63
2019-03-13T22:39:27.561Z,3.43
2019-03-13T22:41:56.021Z,4.30
2019-03-13T22:44:24.543Z,4.13
2019-03-13T22:46:56.903Z,4.42
2019-03-13T22:49:27.850Z,3.93
2019-03-13T22:51:56.291Z,4.33
2019-03-13T22:54:27.291Z,4.47
2019-03-13T22:56:55.829Z,3.57
2019-03-13T22:59:24.362Z,4.23
2019-03-13T23:01:55.900Z,4.47
2019-03-13T23:04:24.600Z,4.43
2019-03-13T23:06:53.051Z,4.67
2019-03-13T23:09:22.079Z,4.20
2019-03-13T23:11:50.607Z,4.70
2019-03-13T23:14:19.068Z,5.30
2019-03-13T23:16:48.963Z,4.97
2019-03-13T23:19:17.822Z,4.78
2019-03-13T23:21:48.543Z,5.37
2019-03-13T23:24:20.747Z,5.22
2019-03-13T23:26:49.198Z,5.03
2019-03-13T23:29:19.476Z,5.27
2019-03-13T23:31:47.931Z,4.60
2019-03-13T23:34:16.776Z,4.53
2019-03-13T23:36:45.291Z,4.83
2019-03-13T23:39:13.985Z,5.47
2019-03-13T23:41:45.701Z,4.87
2019-03-13T23:44:14.231Z,4.43
2019-03-13T23:46:47.173Z,5.23
2019-03-13T23:49:16.376Z,4.50
2019-03-13T23:51:46.175Z,4.60
2019-03-13T23:54:17.732Z,4.17
2019-03-13T23:56:46.175Z,5.07
2019-03-13T23:59:16.971Z,4.13
